createdAt,value
2019-03-11T00:00:02.499Z,84.93
2019-03-11T00:05:02.948Z,84.92
2019-03-11T00:10:02.344Z,84.95
2019-03-11T00:15:02.663Z,84.95
2019-03-11T00:20:03.036Z,84.99
2019-03-11T00:25:02.450Z,85.01
2019-03-11T00:30:02.795Z,85.04
2019-03-11T00:35:03.433Z,84.94
2019-03-11T00:40:02.812Z,84.86
2019-03-11T00:45:03.202Z,84.77
2019-03-11T00:50:02.608Z,84.71
2019-03-11T00:55:02.970Z,84.7
2019-03-11T01:00:02.384Z,84.81
2019-03-11T01:05:02.726Z,85.04
2019-03-11T01:10:03.133Z,85.01
2019-03-11T01:15:02.480Z,85.07
2019-03-11T01:20:02.923Z,85.11
2019-03-11T01:25:04.999Z,85.04
2019-03-11T01:30:02.584Z,85.04
2019-03-11T01:35:02.929Z,84.97
2019-03-11T01:40:02.343Z,84.88
2019-03-11T01:45:02.689Z,84.78
2019-03-11T01:50:03.126Z,84.74
2019-03-11T01:55:02.548Z,84.81
2019-03-11T02:00:02.887Z,84.85
2019-03-11T02:05:02.430Z,85.0
2019-03-11T02:10:02.931Z,85.02
2019-03-11T02:15:03.290Z,85.04
2019-03-11T02:20:02.720Z,85.06
2019-03-11T02:25:03.057Z,85.05
2019-03-11T02:30:02.399Z,85.06
2019-03-11T02:35:02.816Z,85.16
2019-03-11T02:40:03.345Z,85.13
2019-03-11T02:45:02.675Z,85.12
2019-03-11T02:50:03.019Z,85.06
2019-03-11T02:55:02.494Z,85.03
2019-03-11T03:00:02.985Z,85.05
2019-03-11T03:05:02.399Z,85.06
2019-03-11T03:10:02.856Z,85.04
2019-03-11T03:15:03.297Z,84.99
2019-03-11T03:20:02.715Z,85.0
2019-03-11T03:25:03.167Z,85.05
2019-03-11T03:30:02.567Z,85.08
2019-03-11T03:35:02.933Z,85.07
2019-03-11T03:40:02.441Z,85.1
2019-03-11T03:45:02.780Z,85.18
2019-03-11T03:50:03.118Z,85.25
2019-03-11T03:55:02.538Z,85.34
2019-03-11T04:00:03.284Z,85.31
2019-03-11T04:05:02.710Z,85.55
2019-03-11T04:10:03.170Z,85.7
2019-03-11T04:15:02.574Z,85.72
2019-03-11T04:20:02.954Z,85.7
2019-03-11T04:25:03.353Z,85.46
2019-03-11T04:30:02.793Z,85.3
2019-03-11T04:35:03.232Z,85.15
2019-03-11T04:40:02.627Z,85.06
2019-03-11T04:45:02.950Z,85.01
2019-03-11T04:50:03.281Z,85.0
2019-03-11T04:55:02.634Z,85.0
2019-03-11T05:00:02.979Z,85.0
2019-03-11T05:05:02.400Z,85.07
2019-03-11T05:10:02.835Z,85.16
2019-03-11T05:15:03.171Z,85.25
2019-03-11T05:20:02.593Z,85.44
2019-03-11T05:25:02.941Z,85.54
2019-03-11T05:30:03.285Z,85.74
2019-03-11T05:35:02.614Z,85.81
2019-03-11T05:40:03.140Z,85.83
2019-03-11T05:45:02.562Z,85.8
2019-03-11T05:50:02.901Z,85.71
2019-03-11T05:55:03.242Z,85.75
2019-03-11T06:00:02.670Z,85.67
2019-03-11T06:05:03.001Z,85.67
2019-03-11T06:10:02.418Z,85.73
2019-03-11T06:15:02.765Z,85.67
2019-03-11T06:20:03.204Z,85.58
2019-03-11T06:25:02.612Z,85.48
2019-03-11T06:30:02.959Z,85.51
2019-03-11T06:35:03.405Z,85.55
2019-03-11T06:40:02.817Z,85.7
2019-03-11T06:45:03.185Z,85.79
2019-03-11T06:50:02.583Z,85.93
2019-03-11T06:55:02.930Z,85.98
2019-03-11T07:00:03.582Z,86.02
2019-03-11T07:05:03.012Z,85.99
2019-03-11T07:10:02.403Z,85.89
2019-03-11T07:15:02.758Z,85.88
2019-03-11T07:20:03.203Z,85.86
2019-03-11T07:25:02.541Z,85.9
2019-03-11T07:30:02.961Z,85.93
2019-03-11T07:35:08.545Z,85.96
2019-03-11T07:40:02.420Z,86.08
2019-03-11T07:45:03.077Z,86.07
2019-03-11T07:50:01.693Z,86.1
2019-03-11T07:55:03.167Z,86.14
2019-03-11T08:00:02.585Z,86.21
2019-03-11T08:05:03.031Z,86.19
2019-03-11T08:10:02.544Z,86.21
2019-03-11T08:15:02.997Z,86.17
2019-03-11T08:20:02.404Z,86.17
2019-03-11T08:25:02.849Z,86.12
2019-03-11T08:30:03.262Z,86.19
2019-03-11T08:35:02.706Z,86.36
2019-03-11T08:40:03.096Z,86.36
2019-03-11T08:45:02.477Z,86.49
2019-03-11T08:50:02.921Z,86.49
2019-03-11T08:55:03.331Z,86.54
2019-03-11T09:00:02.772Z,86.57
2019-03-11T09:05:03.213Z,86.52
2019-03-11T09:10:02.742Z,86.62
2019-03-11T09:15:03.162Z,86.43
2019-03-11T09:20:02.526Z,86.5
2019-03-11T09:25:02.919Z,86.62
2019-03-11T09:30:03.295Z,86.56
2019-03-11T09:35:02.676Z,86.43
2019-03-11T09:40:03.162Z,86.35
2019-03-11T09:45:02.530Z,86.3
2019-03-11T09:50:02.878Z,86.21
2019-03-11T09:55:03.363Z,86.04
2019-03-11T10:00:02.752Z,86.0
2019-03-11T10:05:03.092Z,86.02
2019-03-11T10:10:02.496Z,85.93
2019-03-11T10:15:02.843Z,85.85
2019-03-11T10:20:03.231Z,85.75
2019-03-11T10:25:02.604Z,85.67
2019-03-11T10:30:02.937Z,85.62
2019-03-11T10:35:03.299Z,85.56
2019-03-11T10:40:02.824Z,85.57
2019-03-11T10:45:03.245Z,85.3
2019-03-11T10:50:02.665Z,85.25
2019-03-11T10:55:03.010Z,85.23
2019-03-11T11:00:02.443Z,85.16
2019-03-11T11:05:02.876Z,84.87
2019-03-11T11:10:03.325Z,84.61
2019-03-11T11:15:02.734Z,84.38
2019-03-11T11:20:04.118Z,84.27
2019-03-11T11:25:02.597Z,84.1
2019-03-11T11:30:02.939Z,84.05
2019-03-11T11:35:03.380Z,83.87
2019-03-11T11:40:02.790Z,83.9
2019-03-11T11:45:03.143Z,83.58
2019-03-11T11:50:02.552Z,83.35
2019-03-11T11:55:02.104Z,83.23
2019-03-11T12:00:02.516Z,83.03
2019-03-11T12:05:02.887Z,83.07
2019-03-11T12:10:03.413Z,83.01
2019-03-11T12:15:02.742Z,82.73
2019-03-11T12:20:03.184Z,82.08
2019-03-11T12:25:02.590Z,81.56
2019-03-11T12:30:02.929Z,81.15
2019-03-11T12:35:03.283Z,80.98
2019-03-11T12:40:02.684Z,80.87
2019-03-11T12:45:03.140Z,80.55
2019-03-11T12:50:02.472Z,79.81
2019-03-11T12:55:02.894Z,79.06
2019-03-11T13:00:03.238Z,79.06
2019-03-11T13:05:02.645Z,79.2
2019-03-11T13:10:03.090Z,78.79
2019-03-11T13:15:02.515Z,79.07
2019-03-11T13:20:02.849Z,78.92
2019-03-11T13:25:03.195Z,78.61
2019-03-11T13:30:02.619Z,78.24
2019-03-11T13:35:03.062Z,77.48
2019-03-11T13:40:02.476Z,77.75
2019-03-11T13:45:02.873Z,78.3
2019-03-11T13:50:03.343Z,77.98
2019-03-11T13:55:10.237Z,77.63
2019-03-11T14:00:03.163Z,77.0
2019-03-11T14:05:02.503Z,77.13
2019-03-11T14:10:03.025Z,75.45
2019-03-11T14:15:02.417Z,76.44
2019-03-11T14:20:02.756Z,76.02
2019-03-11T14:25:03.210Z,76.14
2019-03-11T14:30:02.609Z,76.04
2019-03-11T14:35:03.002Z,75.84
2019-03-11T14:40:01.665Z,76.12
2019-03-11T14:45:03.023Z,76.22
2019-03-11T14:50:02.430Z,76.52
2019-03-11T14:55:02.779Z,75.4
2019-03-11T15:00:03.121Z,75.53
2019-03-11T15:05:02.584Z,75.72
2019-03-11T15:10:03.086Z,75.69
2019-03-11T15:15:02.499Z,75.75
2019-03-11T15:20:02.848Z,76.16
2019-03-11T15:25:03.184Z,76.24
2019-03-11T15:30:02.594Z,76.26
2019-03-11T15:35:02.947Z,75.8
2019-03-11T15:40:02.386Z,75.42
2019-03-11T15:45:02.818Z,75.82
2019-03-11T15:50:03.336Z,76.72
2019-03-11T15:55:02.765Z,77.66
2019-03-11T16:00:03.220Z,78.09
2019-03-11T16:05:02.571Z,78.51
2019-03-11T16:10:02.978Z,78.88
2019-03-11T16:15:02.405Z,79.22
2019-03-11T16:20:02.834Z,79.52
2019-03-11T16:25:03.180Z,79.73
2019-03-11T16:30:02.604Z,80.03
2019-03-11T16:35:02.943Z,80.41
2019-03-11T16:40:02.406Z,80.69
2019-03-11T16:45:02.802Z,80.89
2019-03-11T16:50:03.147Z,80.92
2019-03-11T16:55:02.556Z,80.86
2019-03-11T17:00:03.017Z,80.93
2019-03-11T17:05:02.424Z,80.82
2019-03-11T17:10:04.337Z,80.98
2019-03-11T17:15:02.967Z,81.22
2019-03-11T17:20:02.423Z,81.43
2019-03-11T17:25:02.771Z,81.61
2019-03-11T17:30:03.211Z,81.89
2019-03-11T17:35:02.634Z,82.22
2019-03-11T17:40:03.083Z,82.28
2019-03-11T17:45:02.481Z,82.29
2019-03-11T17:50:02.834Z,82.28
2019-03-11T17:55:03.295Z,82.41
2019-03-11T18:00:02.753Z,82.85
2019-03-11T18:05:02.333Z,82.78
2019-03-11T18:10:02.758Z,82.66
2019-03-11T18:15:03.104Z,83.05
2019-03-11T18:20:02.548Z,83.06
2019-03-11T18:25:02.961Z,82.92
2019-03-11T18:30:03.325Z,82.95
2019-03-11T18:35:02.730Z,82.93
2019-03-11T18:40:03.169Z,82.94
2019-03-11T18:45:02.620Z,82.95
2019-03-11T18:50:03.058Z,82.99
2019-03-11T18:55:02.468Z,83.07
2019-03-11T19:00:02.892Z,83.08
2019-03-11T19:05:03.354Z,83.14
2019-03-11T19:10:02.786Z,83.19
2019-03-11T19:15:03.213Z,83.3
2019-03-11T19:20:02.608Z,83.37
2019-03-11T19:25:02.991Z,83.43
2019-03-11T19:30:02.404Z,83.42
2019-03-11T19:35:02.847Z,83.37
2019-03-11T19:40:03.444Z,83.55
2019-03-11T19:45:02.951Z,83.5
2019-03-11T19:50:03.350Z,83.56
2019-03-11T19:55:02.685Z,83.56
2019-03-11T20:00:03.461Z,83.73
2019-03-11T20:05:02.826Z,83.62
2019-03-11T20:10:03.262Z,83.72
2019-03-11T20:15:02.711Z,83.82
2019-03-11T20:20:03.217Z,83.74
2019-03-11T20:25:02.729Z,83.62
2019-03-11T20:30:03.176Z,83.65
2019-03-11T20:35:02.746Z,83.67
2019-03-11T20:40:03.240Z,83.67
2019-03-11T20:45:02.719Z,83.7
2019-03-11T20:50:03.132Z,83.72
2019-03-11T20:55:02.679Z,83.71
2019-03-11T21:00:03.252Z,83.74
2019-03-11T21:05:02.639Z,83.68
2019-03-11T21:10:03.144Z,83.65
2019-03-11T21:15:02.528Z,83.59
2019-03-11T21:20:02.128Z,83.59
2019-03-11T21:25:02.532Z,83.61
2019-03-11T21:30:03.012Z,83.64
2019-03-11T21:35:02.492Z,83.61
2019-03-11T21:40:03.068Z,83.61
2019-03-11T21:45:02.518Z,83.6
2019-03-11T21:50:03.125Z,83.66
2019-03-11T21:55:02.627Z,83.67
2019-03-11T22:00:02.979Z,83.65
2019-03-11T22:05:02.420Z,83.6
2019-03-11T22:10:02.838Z,83.55
2019-03-11T22:15:03.283Z,83.55
2019-03-11T22:20:02.711Z,83.54
2019-03-11T22:25:03.145Z,83.53
2019-03-11T22:30:02.559Z,83.5
2019-03-11T22:35:12.654Z,83.49
2019-03-11T22:40:05.771Z,83.47
2019-03-11T22:45:02.461Z,83.5
2019-03-11T22:50:02.905Z,83.5
2019-03-11T22:55:03.248Z,83.46
2019-03-11T23:00:02.653Z,83.46
2019-03-11T23:05:03.012Z,83.43
2019-03-11T23:10:02.401Z,83.43
2019-03-11T23:15:02.771Z,83.48
2019-03-11T23:20:03.238Z,83.49
2019-03-11T23:25:02.617Z,83.51
2019-03-11T23:30:02.942Z,83.53
2019-03-11T23:35:03.328Z,83.54
2019-03-11T23:40:02.837Z,83.53
2019-03-11T23:45:03.191Z,83.52
2019-03-11T23:50:02.587Z,83.54
2019-03-11T23:55:03.019Z,83.53
